Glasgow, MT

1:13 AM MDT on May 06, 2015 (GMT -0600)
APRSWXNET | | Change Station
CLOSE
Current Station
Personal Weather Station
Location: Glasgow, MT
Elevation: 2211 ft
Nearby Weather Stations

Elev 2211 ft 48.19 °N, 106.61 °W | Updated 18 minutes ago

Overcast
Overcast
62 °F
Feels Like 62 °F
N
3
Wind Variable Wind from SE
Gusts 12.0 mph

Today
High -- | Low -- °F
--% Chance of Precip.
Yesterday
High -- | Low -- °F
Precip. -- in
5:39 AM 8:26 PM
Waning Gibbous, 95% visible
Pressure 29.64 in
Visibility 10.0 miles
Clouds Scattered Clouds 7500 ft
Mostly Cloudy 11000 ft
Dew Point 49 °F
Humidity 63%
Rainfall in
Snow Depth Not available.
UV 0 out of 12
Pollen 10.40 out of 12
Air Quality Not available.
Flu Activity Local Activity
METAR KGGW 060653Z AUTO VRB05KT 10SM SCT075 BKN110 17/09 A2966 RMK AO2 LTG DSNT N SLP036 T01670094 402670067

More Conditions Fewer Conditions

Pressure 29.64 in
Visibility 10.0 miles
Clouds Scattered Clouds 7500 ft
Mostly Cloudy 11000 ft
Dew Point 49 °F
Humidity 63%
Rainfall in
Snow Depth Not available.
UV 0 out of 12
Pollen 10.40 out of 12
Air Quality Not available.
Flu Activity Local Activity
METAR KGGW 060653Z AUTO VRB05KT 10SM SCT075 BKN110 17/09 A2966 RMK AO2 LTG DSNT N SLP036 T01670094 402670067

More Conditions Fewer Conditions

10-Day Weather Forecast

Almanac

Astronomy

May. 06, 2015 Rise Set
Actual Time
Civil Twilight
Nautical Twilight
Astronomical Twilight
Moon
Length of Visible Light
Length of Day
Tomorrow will be .
, % of the Moon is Illuminated

Today's Extremes

State Highs State Lows

Community

WunderPhotos

Upload Photos

1,818,850 photos uploaded!

WunderBlogs® & News

Nearby

Air Quality

  Air Quality AQ Index Pollutant
Not available.

Snow Depth

Station Depth Elevation

Earthquake Activity

City Distance Mag. Time & Date
Minimum magnitude displayed is 2.5.

Coastal Water Temperatures

Place Temperature

Stations

Nearby Weather Stations

Station Location Temp. Windchill Dew Point Humidity Wind Precip. Elev Updated Type